Brainard, New York
Current Conditions -  °F | °C
As of 5:14 AM on Friday 24 Oct 2014 (Local Time) from KPSF Reporting Station
Light Rain Light Rain  
Wind Chill: 38°   Ceiling: 1100
Heat Index: 43°   Visibility: 10mi
Dew Point: 41°   Wind: 8mph
Humidity: 93%   Direction: 340°NNW
Pressure: 29.77"   Gusts: NA
Location:  42.5°N, 73.51°W
Report Text: KPSF 240914Z AUTO 34007KT 300V020 10SM -RA OVC011 06/05 A2977 RMK AO2 CIG 008V013 P0000 T00610050
Loading
Personal Weather Stations






























Interactive Weather Map New forecast layout! Learn more

10-Day Weather Forecast

Advertisements
Track Severe Weather on mobile